sensor_id;sensor_type;location;lat;lon;timestamp;pressure;altitude;pressure_sealevel;temperature;humidity
76260;BME280;65076;52.362;6.588;2023-10-31T00:01:36;99346.19;;;15.06;85.48
76260;BME280;65076;52.362;6.588;2023-10-31T00:04:07;99319.94;;;15.05;85.95
76260;BME280;65076;52.362;6.588;2023-10-31T00:06:44;99329.19;;;15.42;84.10
76260;BME280;65076;52.362;6.588;2023-10-31T00:11:49;99328.22;;;15.62;84.39
76260;BME280;65076;52.362;6.588;2023-10-31T00:16:50;99314.81;;;15.50;85.19
76260;BME280;65076;52.362;6.588;2023-10-31T00:19:25;99328.00;;;15.25;83.79
76260;BME280;65076;52.362;6.588;2023-10-31T00:24:27;99316.13;;;15.36;85.10
76260;BME280;65076;52.362;6.588;2023-10-31T00:27:01;99306.72;;;15.59;85.15
76260;BME280;65076;52.362;6.588;2023-10-31T00:37:04;99310.66;;;15.17;83.21
76260;BME280;65076;52.362;6.588;2023-10-31T00:44:35;99325.88;;;14.79;87.58
76260;BME280;65076;52.362;6.588;2023-10-31T00:49:44;99338.94;;;14.34;89.48
76260;BME280;65076;52.362;6.588;2023-10-31T00:52:20;99287.75;;;13.77;91.06
76260;BME280;65076;52.362;6.588;2023-10-31T00:57:24;99335.38;;;13.92;91.69
76260;BME280;65076;52.362;6.588;2023-10-31T01:00:04;99353.91;;;13.67;93.91
76260;BME280;65076;52.362;6.588;2023-10-31T01:07:45;99372.75;;;12.82;90.15
76260;BME280;65076;52.362;6.588;2023-10-31T01:12:46;99357.03;;;12.19;90.41
76260;BME280;65076;52.362;6.588;2023-10-31T01:15:19;99389.50;;;11.97;92.69
76260;BME280;65076;52.362;6.588;2023-10-31T01:17:53;99399.91;;;11.79;93.60
76260;BME280;65076;52.362;6.588;2023-10-31T01:25:26;99433.19;;;11.44;92.71
76260;BME280;65076;52.362;6.588;2023-10-31T01:30:27;99446.22;;;11.27;92.12
76260;BME280;65076;52.362;6.588;2023-10-31T01:33:01;99459.66;;;11.28;92.70
76260;BME280;65076;52.362;6.588;2023-10-31T01:40:38;99470.44;;;10.79;94.72
76260;BME280;65076;52.362;6.588;2023-10-31T01:45:36;99489.38;;;11.04;94.39
76260;BME280;65076;52.362;6.588;2023-10-31T01:50:37;99494.94;;;10.78;94.84
76260;BME280;65076;52.362;6.588;2023-10-31T01:53:14;99510.94;;;10.93;94.89
76260;BME280;65076;52.362;6.588;2023-10-31T01:58:17;99489.31;;;10.93;94.47
76260;BME280;65076;52.362;6.588;2023-10-31T02:03:23;99514.63;;;10.80;94.74
76260;BME280;65076;52.362;6.588;2023-10-31T02:05:57;99507.25;;;10.56;94.57
76260;BME280;65076;52.362;6.588;2023-10-31T02:13:36;99544.81;;;10.61;96.86
76260;BME280;65076;52.362;6.588;2023-10-31T02:16:20;99545.13;;;10.56;96.89
76260;BME280;65076;52.362;6.588;2023-10-31T02:24:17;99561.22;;;10.45;97.86
76260;BME280;65076;52.362;6.588;2023-10-31T02:29:21;99571.16;;;10.57;96.36
76260;BME280;65076;52.362;6.588;2023-10-31T02:39:31;99587.75;;;10.78;98.26
76260;BME280;65076;52.362;6.588;2023-10-31T02:44:32;99601.16;;;10.54;98.84
76260;BME280;65076;52.362;6.588;2023-10-31T02:49:35;99609.63;;;10.75;99.58
76260;BME280;65076;52.362;6.588;2023-10-31T02:54:46;99595.56;;;10.70;98.19
76260;BME280;65076;52.362;6.588;2023-10-31T02:59:53;99616.91;;;10.87;97.13
76260;BME280;65076;52.362;6.588;2023-10-31T03:04:54;99627.06;;;10.71;98.20
76260;BME280;65076;52.362;6.588;2023-10-31T03:12:34;99625.06;;;10.60;98.15
76260;BME280;65076;52.362;6.588;2023-10-31T03:17:33;99635.69;;;10.63;97.75
76260;BME280;65076;52.362;6.588;2023-10-31T03:20:07;99622.69;;;10.56;97.72
76260;BME280;65076;52.362;6.588;2023-10-31T03:27:49;99648.16;;;10.79;97.33
76260;BME280;65076;52.362;6.588;2023-10-31T03:32:50;99649.88;;;10.67;96.81
76260;BME280;65076;52.362;6.588;2023-10-31T03:35:23;99657.22;;;10.65;97.26
76260;BME280;65076;52.362;6.588;2023-10-31T03:38:03;99645.53;;;10.65;97.64
76260;BME280;65076;52.362;6.588;2023-10-31T03:43:05;99647.28;;;10.66;96.18
76260;BME280;65076;52.362;6.588;2023-10-31T03:45:45;99663.19;;;10.70;96.66
76260;BME280;65076;52.362;6.588;2023-10-31T03:55:50;99691.25;;;10.82;95.99
76260;BME280;65076;52.362;6.588;2023-10-31T04:06:02;99684.31;;;10.78;96.77
76260;BME280;65076;52.362;6.588;2023-10-31T04:08:37;99681.09;;;10.85;95.75
76260;BME280;65076;52.362;6.588;2023-10-31T04:18:48;99700.50;;;10.92;95.27
76260;BME280;65076;52.362;6.588;2023-10-31T04:26:25;99707.34;;;10.71;96.52
76260;BME280;65076;52.362;6.588;2023-10-31T04:31:26;99652.47;;;10.69;96.36
76260;BME280;65076;52.362;6.588;2023-10-31T04:34:00;99718.16;;;10.97;95.94
76260;BME280;65076;52.362;6.588;2023-10-31T04:41:31;99722.94;;;11.07;95.34
76260;BME280;65076;52.362;6.588;2023-10-31T04:51:38;99718.88;;;10.87;96.00
76260;BME280;65076;52.362;6.588;2023-10-31T04:56:41;99718.81;;;10.74;96.71
76260;BME280;65076;52.362;6.588;2023-10-31T04:59:13;99731.47;;;10.74;97.41
76260;BME280;65076;52.362;6.588;2023-10-31T05:04:14;99728.81;;;11.13;96.24
76260;BME280;65076;52.362;6.588;2023-10-31T05:06:48;99721.50;;;10.61;97.31
76260;BME280;65076;52.362;6.588;2023-10-31T05:14:24;99754.84;;;11.01;95.60
76260;BME280;65076;52.362;6.588;2023-10-31T05:22:00;99738.53;;;11.03;96.38
76260;BME280;65076;52.362;6.588;2023-10-31T05:27:03;99768.44;;;11.14;95.54
76260;BME280;65076;52.362;6.588;2023-10-31T05:32:08;99771.00;;;11.03;95.40
76260;BME280;65076;52.362;6.588;2023-10-31T05:37:11;99769.19;;;10.89;96.30
76260;BME280;65076;52.362;6.588;2023-10-31T05:44:50;99786.53;;;10.87;96.26
76260;BME280;65076;52.362;6.588;2023-10-31T05:49:50;99796.78;;;11.09;95.70
76260;BME280;65076;52.362;6.588;2023-10-31T05:52:27;99796.22;;;11.30;94.33
76260;BME280;65076;52.362;6.588;2023-10-31T05:59:59;99784.22;;;10.81;94.80
76260;BME280;65076;52.362;6.588;2023-10-31T06:07:38;99819.97;;;10.86;95.63
76260;BME280;65076;52.362;6.588;2023-10-31T06:10:12;99820.75;;;11.15;94.55
76260;BME280;65076;52.362;6.588;2023-10-31T06:12:47;99814.72;;;10.97;93.54
76260;BME280;65076;52.362;6.588;2023-10-31T06:20:21;99828.28;;;10.83;94.08
76260;BME280;65076;52.362;6.588;2023-10-31T06:28:00;99847.25;;;10.83;93.60
76260;BME280;65076;52.362;6.588;2023-10-31T06:33:03;99852.22;;;11.03;92.01
76260;BME280;65076;52.362;6.588;2023-10-31T06:38:07;99821.94;;;10.70;93.75
76260;BME280;65076;52.362;6.588;2023-10-31T06:58:53;99866.94;;;10.85;94.33
76260;BME280;65076;52.362;6.588;2023-10-31T07:01:24;99870.13;;;10.91;93.79
76260;BME280;65076;52.362;6.588;2023-10-31T07:04:04;99866.09;;;10.70;94.47
76260;BME280;65076;52.362;6.588;2023-10-31T07:09:08;99881.81;;;10.92;94.33
76260;BME280;65076;52.362;6.588;2023-10-31T07:16:36;99868.50;;;10.75;93.29
76260;BME280;65076;52.362;6.588;2023-10-31T07:19:16;99903.63;;;11.03;93.43
76260;BME280;65076;52.362;6.588;2023-10-31T07:24:20;99898.41;;;11.00;93.30
76260;BME280;65076;52.362;6.588;2023-10-31T07:29:25;99900.38;;;10.98;92.55
76260;BME280;65076;52.362;6.588;2023-10-31T07:31:57;99911.84;;;11.01;93.20
76260;BME280;65076;52.362;6.588;2023-10-31T07:42:05;99913.78;;;11.14;92.20
76260;BME280;65076;52.362;6.588;2023-10-31T07:47:05;99916.56;;;11.12;91.57
76260;BME280;65076;52.362;6.588;2023-10-31T07:52:05;99922.19;;;11.36;90.56
76260;BME280;65076;52.362;6.588;2023-10-31T07:59:37;99920.09;;;11.27;91.24
76260;BME280;65076;52.362;6.588;2023-10-31T08:07:11;99925.38;;;11.42;90.44
76260;BME280;65076;52.362;6.588;2023-10-31T08:12:16;99936.59;;;11.51;90.14
76260;BME280;65076;52.362;6.588;2023-10-31T08:17:20;99941.81;;;11.80;89.74
76260;BME280;65076;52.362;6.588;2023-10-31T08:22:20;99928.03;;;11.57;88.36
76260;BME280;65076;52.362;6.588;2023-10-31T08:24:56;99949.38;;;11.75;89.20
76260;BME280;65076;52.362;6.588;2023-10-31T08:32:38;99955.47;;;11.79;89.54
76260;BME280;65076;52.362;6.588;2023-10-31T08:35:12;99964.16;;;11.84;90.11
76260;BME280;65076;52.362;6.588;2023-10-31T08:42:49;99974.81;;;11.46;91.36
76260;BME280;65076;52.362;6.588;2023-10-31T08:52:53;99992.03;;;11.45;94.42
76260;BME280;65076;52.362;6.588;2023-10-31T08:57:57;99981.81;;;11.63;94.28
76260;BME280;65076;52.362;6.588;2023-10-31T09:00:29;99996.81;;;11.82;94.01
76260;BME280;65076;52.362;6.588;2023-10-31T09:10:43;99991.06;;;12.26;89.24
76260;BME280;65076;52.362;6.588;2023-10-31T09:18:18;100020.25;;;12.36;89.11
76260;BME280;65076;52.362;6.588;2023-10-31T09:23:19;100018.00;;;12.29;88.67
76260;BME280;65076;52.362;6.588;2023-10-31T09:33:22;100038.25;;;13.01;87.73
76260;BME280;65076;52.362;6.588;2023-10-31T09:41:00;100046.19;;;12.92;86.40
76260;BME280;65076;52.362;6.588;2023-10-31T09:43:35;100057.81;;;13.06;87.11
76260;BME280;65076;52.362;6.588;2023-10-31T09:48:47;100055.53;;;13.38;84.60
76260;BME280;65076;52.362;6.588;2023-10-31T09:53:54;100051.78;;;13.65;82.04
76260;BME280;65076;52.362;6.588;2023-10-31T10:01:25;100069.53;;;12.94;86.98
76260;BME280;65076;52.362;6.588;2023-10-31T10:04:05;100077.69;;;13.20;86.09
76260;BME280;65076;52.362;6.588;2023-10-31T10:09:16;100092.69;;;13.38;84.69
76260;BME280;65076;52.362;6.588;2023-10-31T10:16:47;100091.16;;;13.59;82.85
76260;BME280;65076;52.362;6.588;2023-10-31T10:22:12;100106.47;;;14.33;80.83
76260;BME280;65076;52.362;6.588;2023-10-31T10:32:10;100109.56;;;13.92;81.09
76260;BME280;65076;52.362;6.588;2023-10-31T10:39:51;100111.16;;;13.71;80.75
76260;BME280;65076;52.362;6.588;2023-10-31T10:42:43;100125.31;;;13.99;79.31
76260;BME280;65076;52.362;6.588;2023-10-31T10:47:59;100130.91;;;14.22;77.97
76260;BME280;65076;52.362;6.588;2023-10-31T10:53:31;100151.03;;;14.19;76.82
76260;BME280;65076;52.362;6.588;2023-10-31T10:58:43;100139.41;;;14.54;74.99
76260;BME280;65076;52.362;6.588;2023-10-31T11:03:51;100145.44;;;14.70;74.82
76260;BME280;65076;52.362;6.588;2023-10-31T11:08:55;100155.22;;;14.36;76.23
76260;BME280;65076;52.362;6.588;2023-10-31T11:14:00;100153.81;;;14.07;77.02
76260;BME280;65076;52.362;6.588;2023-10-31T11:19:05;100160.22;;;14.06;76.82
76260;BME280;65076;52.362;6.588;2023-10-31T11:24:11;100151.00;;;14.32;75.35
76260;BME280;65076;52.362;6.588;2023-10-31T11:26:52;100165.91;;;14.03;76.61
76260;BME280;65076;52.362;6.588;2023-10-31T11:40:19;100174.81;;;14.05;75.50
76260;BME280;65076;52.362;6.588;2023-10-31T11:50:24;100184.56;;;14.20;75.39
76260;BME280;65076;52.362;6.588;2023-10-31T11:55:25;100185.00;;;14.39;75.21
76260;BME280;65076;52.362;6.588;2023-10-31T12:00:26;100189.44;;;14.27;75.85
76260;BME280;65076;52.362;6.588;2023-10-31T12:03:02;100194.13;;;14.62;74.21
76260;BME280;65076;52.362;6.588;2023-10-31T12:18:04;100190.47;;;14.98;71.68
76260;BME280;65076;52.362;6.588;2023-10-31T12:25:45;100194.16;;;15.66;70.64
76260;BME280;65076;52.362;6.588;2023-10-31T12:30:48;100211.06;;;15.02;73.55
76260;BME280;65076;52.362;6.588;2023-10-31T12:33:25;100207.16;;;14.93;74.89
76260;BME280;65076;52.362;6.588;2023-10-31T12:44:00;100219.41;;;15.11;76.73
76260;BME280;65076;52.362;6.588;2023-10-31T12:56:49;100197.59;;;16.69;71.29
76260;BME280;65076;52.362;6.588;2023-10-31T13:06:55;100205.88;;;18.14;62.79
76260;BME280;65076;52.362;6.588;2023-10-31T13:12:04;100197.75;;;18.03;64.48
76260;BME280;65076;52.362;6.588;2023-10-31T13:17:13;100197.91;;;17.81;64.14
76260;BME280;65076;52.362;6.588;2023-10-31T13:22:21;100185.34;;;17.99;64.73
76260;BME280;65076;52.362;6.588;2023-10-31T13:27:33;100204.66;;;18.87;62.32
76260;BME280;65076;52.362;6.588;2023-10-31T13:37:47;100250.38;;;16.36;68.92
76260;BME280;65076;52.362;6.588;2023-10-31T13:42:54;100259.41;;;16.03;70.25
76260;BME280;65076;52.362;6.588;2023-10-31T13:52:56;100249.53;;;14.73;75.04
76260;BME280;65076;52.362;6.588;2023-10-31T14:05:38;100285.97;;;14.34;76.12
76260;BME280;65076;52.362;6.588;2023-10-31T14:10:46;100283.66;;;13.92;77.88
76260;BME280;65076;52.362;6.588;2023-10-31T14:15:49;100273.78;;;13.51;78.26
76260;BME280;65076;52.362;6.588;2023-10-31T14:18:20;100288.81;;;13.44;78.34
76260;BME280;65076;52.362;6.588;2023-10-31T14:28:29;100290.94;;;13.27;79.85
76260;BME280;65076;52.362;6.588;2023-10-31T14:38:29;100304.09;;;13.33;81.29
76260;BME280;65076;52.362;6.588;2023-10-31T14:46:06;100317.03;;;13.94;80.13
76260;BME280;65076;52.362;6.588;2023-10-31T14:56:17;100324.44;;;13.40;80.65
76260;BME280;65076;52.362;6.588;2023-10-31T14:58:49;100319.78;;;13.42;81.54
76260;BME280;65076;52.362;6.588;2023-10-31T15:14:02;100341.69;;;13.26;83.08
76260;BME280;65076;52.362;6.588;2023-10-31T15:19:01;100336.34;;;13.25;81.66
76260;BME280;65076;52.362;6.588;2023-10-31T15:21:36;100355.22;;;12.99;82.48
76260;BME280;65076;52.362;6.588;2023-10-31T15:29:26;100351.66;;;13.26;81.38
76260;BME280;65076;52.362;6.588;2023-10-31T15:37:01;100350.97;;;13.88;79.15
76260;BME280;65076;52.362;6.588;2023-10-31T15:42:03;100352.53;;;13.53;79.89
76260;BME280;65076;52.362;6.588;2023-10-31T15:44:41;100389.19;;;12.78;83.92
76260;BME280;65076;52.362;6.588;2023-10-31T15:49:58;100397.72;;;12.72;83.79
76260;BME280;65076;52.362;6.588;2023-10-31T15:52:34;100397.63;;;12.73;84.44
76260;BME280;65076;52.362;6.588;2023-10-31T15:57:38;100400.75;;;12.82;84.34
76260;BME280;65076;52.362;6.588;2023-10-31T16:00:17;100407.06;;;12.54;84.34
76260;BME280;65076;52.362;6.588;2023-10-31T16:05:21;100409.28;;;12.19;87.35
76260;BME280;65076;52.362;6.588;2023-10-31T16:10:27;100417.88;;;12.25;87.74
76260;BME280;65076;52.362;6.588;2023-10-31T16:15:34;100411.06;;;12.04;87.64
76260;BME280;65076;52.362;6.588;2023-10-31T16:20:38;100422.84;;;12.47;87.55
76260;BME280;65076;52.362;6.588;2023-10-31T16:25:44;100419.28;;;12.75;86.82
76260;BME280;65076;52.362;6.588;2023-10-31T16:28:22;100424.22;;;12.40;86.77
76260;BME280;65076;52.362;6.588;2023-10-31T16:36:00;100422.94;;;12.88;86.17
76260;BME280;65076;52.362;6.588;2023-10-31T16:41:08;100422.72;;;13.20;84.08
76260;BME280;65076;52.362;6.588;2023-10-31T16:43:45;100430.56;;;13.10;84.03
76260;BME280;65076;52.362;6.588;2023-10-31T16:46:19;100430.94;;;13.32;83.53
76260;BME280;65076;52.362;6.588;2023-10-31T16:54:01;100433.97;;;13.54;82.81
76260;BME280;65076;52.362;6.588;2023-10-31T16:56:37;100426.25;;;13.88;81.39
76260;BME280;65076;52.362;6.588;2023-10-31T17:04:10;100409.25;;;13.45;81.68
76260;BME280;65076;52.362;6.588;2023-10-31T17:09:26;100440.13;;;13.44;82.34
76260;BME280;65076;52.362;6.588;2023-10-31T17:14:28;100443.25;;;14.04;80.91
76260;BME280;65076;52.362;6.588;2023-10-31T17:24:54;100463.81;;;13.42;81.46
76260;BME280;65076;52.362;6.588;2023-10-31T17:29:55;100459.31;;;13.55;82.22
76260;BME280;65076;52.362;6.588;2023-10-31T17:34:57;100461.19;;;13.94;81.54
76260;BME280;65076;52.362;6.588;2023-10-31T17:37:33;100473.66;;;13.57;81.55
76260;BME280;65076;52.362;6.588;2023-10-31T17:45:10;100474.69;;;14.08;81.56
76260;BME280;65076;52.362;6.588;2023-10-31T17:52:53;100493.25;;;14.16;78.96
76260;BME280;65076;52.362;6.588;2023-10-31T18:03:01;100492.00;;;13.27;81.96
76260;BME280;65076;52.362;6.588;2023-10-31T18:08:08;100493.34;;;14.14;80.74
76260;BME280;65076;52.362;6.588;2023-10-31T18:10:42;100477.88;;;14.15;80.01
76260;BME280;65076;52.362;6.588;2023-10-31T18:13:19;100492.81;;;14.22;80.05
76260;BME280;65076;52.362;6.588;2023-10-31T18:20:54;100492.03;;;13.80;80.05
76260;BME280;65076;52.362;6.588;2023-10-31T18:28:29;100488.22;;;14.49;79.62
76260;BME280;65076;52.362;6.588;2023-10-31T18:33:33;100490.59;;;14.41;78.47
76260;BME280;65076;52.362;6.588;2023-10-31T18:36:10;100495.97;;;14.68;77.99
76260;BME280;65076;52.362;6.588;2023-10-31T18:43:44;100503.72;;;14.34;77.74
76260;BME280;65076;52.362;6.588;2023-10-31T18:48:51;100508.72;;;14.28;78.91
76260;BME280;65076;52.362;6.588;2023-10-31T18:53:52;100479.41;;;14.06;78.09
76260;BME280;65076;52.362;6.588;2023-10-31T18:58:53;100488.84;;;14.13;79.09
76260;BME280;65076;52.362;6.588;2023-10-31T19:03:57;100497.47;;;14.20;77.67
76260;BME280;65076;52.362;6.588;2023-10-31T19:09:04;100493.75;;;14.48;77.67
76260;BME280;65076;52.362;6.588;2023-10-31T19:14:06;100489.41;;;14.58;76.72
76260;BME280;65076;52.362;6.588;2023-10-31T19:16:41;100494.09;;;14.68;77.34
76260;BME280;65076;52.362;6.588;2023-10-31T19:24:24;100492.34;;;14.42;77.43
76260;BME280;65076;52.362;6.588;2023-10-31T19:26:56;100482.78;;;14.62;77.48
76260;BME280;65076;52.362;6.588;2023-10-31T19:29:39;100483.31;;;14.67;77.73
76260;BME280;65076;52.362;6.588;2023-10-31T19:34:43;100493.53;;;14.38;78.80
76260;BME280;65076;52.362;6.588;2023-10-31T19:37:18;100500.72;;;14.52;78.27
76260;BME280;65076;52.362;6.588;2023-10-31T19:39:54;100490.06;;;14.49;77.42
76260;BME280;65076;52.362;6.588;2023-10-31T19:50:05;100499.25;;;13.94;79.15
76260;BME280;65076;52.362;6.588;2023-10-31T19:55:08;100483.13;;;14.30;77.10
76260;BME280;65076;52.362;6.588;2023-10-31T19:57:45;100489.94;;;14.50;78.01
76260;BME280;65076;52.362;6.588;2023-10-31T20:07:50;100491.25;;;14.57;78.13
76260;BME280;65076;52.362;6.588;2023-10-31T20:12:51;100485.16;;;14.02;78.96
76260;BME280;65076;52.362;6.588;2023-10-31T20:30:45;100492.16;;;13.38;80.67
76260;BME280;65076;52.362;6.588;2023-10-31T20:35:45;100492.69;;;13.57;82.32
76260;BME280;65076;52.362;6.588;2023-10-31T20:38:20;100489.16;;;13.69;82.22
76260;BME280;65076;52.362;6.588;2023-10-31T20:45:53;100480.50;;;13.50;82.67
76260;BME280;65076;52.362;6.588;2023-10-31T20:53:29;100483.66;;;13.15;82.15
76260;BME280;65076;52.362;6.588;2023-10-31T20:58:28;100481.41;;;13.08;84.05
76260;BME280;65076;52.362;6.588;2023-10-31T21:01:01;100473.66;;;13.02;84.46
76260;BME280;65076;52.362;6.588;2023-10-31T21:11:05;100462.41;;;12.94;84.44
76260;BME280;65076;52.362;6.588;2023-10-31T21:18:46;100472.19;;;12.68;85.58
76260;BME280;65076;52.362;6.588;2023-10-31T21:21:17;100457.56;;;12.70;87.06
76260;BME280;65076;52.362;6.588;2023-10-31T21:28:55;100464.16;;;12.81;87.37
76260;BME280;65076;52.362;6.588;2023-10-31T21:36:29;100473.75;;;13.14;85.75
76260;BME280;65076;52.362;6.588;2023-10-31T21:41:30;100487.72;;;13.64;84.31
76260;BME280;65076;52.362;6.588;2023-10-31T21:44:09;100473.72;;;13.43;84.06
76260;BME280;65076;52.362;6.588;2023-10-31T21:51:59;100486.78;;;13.24;83.46
76260;BME280;65076;52.362;6.588;2023-10-31T21:59:38;100484.88;;;13.38;83.66
76260;BME280;65076;52.362;6.588;2023-10-31T22:07:15;100475.06;;;13.50;84.67
76260;BME280;65076;52.362;6.588;2023-10-31T22:12:16;100463.63;;;13.31;84.80
76260;BME280;65076;52.362;6.588;2023-10-31T22:14:51;100461.53;;;13.22;84.62
76260;BME280;65076;52.362;6.588;2023-10-31T22:27:27;100454.47;;;13.46;84.11
76260;BME280;65076;52.362;6.588;2023-10-31T22:32:32;100454.72;;;13.29;84.93
76260;BME280;65076;52.362;6.588;2023-10-31T22:37:33;100433.91;;;13.42;83.98
76260;BME280;65076;52.362;6.588;2023-10-31T22:42:32;100426.22;;;13.22;84.26
76260;BME280;65076;52.362;6.588;2023-10-31T22:45:07;100428.94;;;13.07;85.38
76260;BME280;65076;52.362;6.588;2023-10-31T22:52:44;100417.72;;;12.71;87.33
76260;BME280;65076;52.362;6.588;2023-10-31T23:00:17;100406.09;;;13.38;86.55
76260;BME280;65076;52.362;6.588;2023-10-31T23:07:58;100415.47;;;12.92;87.22
76260;BME280;65076;52.362;6.588;2023-10-31T23:12:58;100404.22;;;12.84;86.28
76260;BME280;65076;52.362;6.588;2023-10-31T23:18:00;100426.22;;;13.07;85.88
76260;BME280;65076;52.362;6.588;2023-10-31T23:20:35;100434.94;;;12.98;87.71
76260;BME280;65076;52.362;6.588;2023-10-31T23:28:11;100439.03;;;12.77;89.86
76260;BME280;65076;52.362;6.588;2023-10-31T23:33:15;100426.13;;;12.95;88.18
76260;BME280;65076;52.362;6.588;2023-10-31T23:35:49;100416.84;;;12.85;88.07
76260;BME280;65076;52.362;6.588;2023-10-31T23:43:25;100427.69;;;12.42;89.30
76260;BME280;65076;52.362;6.588;2023-10-31T23:48:28;100427.38;;;13.03;86.86
76260;BME280;65076;52.362;6.588;2023-10-31T23:53:29;100424.00;;;12.29;87.99
76260;BME280;65076;52.362;6.588;2023-10-31T23:56:01;100405.03;;;12.29;87.96
